Terminal Aerodrome Forecast
Issued by NWS Pueblo, CO

Home | Current Version | Previous Version | Text Only | Print | Product List | Glossary On
Versions: 1 2 3 4 5 6 7 8 9 10 11 12 13 14 15 16 17 18 19 20 21 22 23 24 25 26 27 28 29 30 31 32 33 34 35 36 37 38 39 40 41 42 43 44 45 46 47 48 49 50
000
FTUS45 KPUB 041656 AAB
TAFPUB
TAF AMD
KPUB 041656Z 0417/0512 05010KT P6SM -SN SCT035 BKN050 OVC060
      TEMPO 0417/0418 2SM -SN BR BKN030 OVC050
     FM041800 09011KT P6SM SCT030 BKN070
      TEMPO 0418/0420 -SHSN BKN025
     FM042100 13008KT P6SM SCT030 BKN040
     FM050300 VRB05KT P6SM SCT035 SCT050=

USA.gov is the U.S. government's official web portal to all federal, state and local government web resources and services.